Nacip Raydan, Brazil
Current Conditions -  °F | °C
As of 12:00 PM on Tuesday 21 Oct 2014 (Local Time) from SBIP Reporting Station
Smoke Smoke  
Wind Chill: 79°   Ceiling: 5000
Heat Index: 81°   Visibility: 2.5mi
Dew Point: 64°   Wind: 5mph
Humidity: 61%   Direction: 270°W
Pressure: 30.03"   Gusts: NA
Location:  18.46°S, 42.25°W
Report Text: SBIP 211400Z 27004KT 4000 FU SCT025 BKN050 26/18 Q1017
Loading
Personal Weather Stations






























Interactive Weather Map
Tropical Storm Tracking
New forecast layout! Learn more

10-Day Weather Forecast

Advertisements
Track Severe Weather on mobile